createdAt,value
2018-12-20T00:02:07.458Z,6.62
2018-12-20T00:04:35.027Z,6.62
2018-12-20T00:07:02.625Z,6.55
2018-12-20T00:09:30.233Z,6.61
2018-12-20T00:11:58.008Z,6.68
2018-12-20T00:14:29.909Z,6.64
2018-12-20T00:17:01.070Z,6.56
2018-12-20T00:19:28.787Z,6.60
2018-12-20T00:21:56.329Z,6.57
2018-12-20T00:24:24.030Z,6.51
2018-12-20T00:26:51.644Z,6.50
2018-12-20T00:29:19.203Z,6.51
2018-12-20T00:31:46.714Z,6.54
2018-12-20T00:34:14.386Z,6.63
2018-12-20T00:36:42.020Z,6.65
2018-12-20T00:39:09.714Z,6.71
2018-12-20T00:41:37.327Z,6.70
2018-12-20T00:44:05.025Z,6.66
2018-12-20T00:46:32.635Z,6.71
2018-12-20T00:49:00.178Z,6.72
2018-12-20T00:51:27.703Z,6.77
2018-12-20T00:53:55.288Z,6.75
2018-12-20T00:56:22.885Z,6.80
2018-12-20T00:58:50.683Z,6.82
2018-12-20T01:01:18.308Z,6.87
2018-12-20T01:03:45.858Z,6.84
2018-12-20T01:06:13.408Z,6.84
2018-12-20T01:08:41.395Z,6.88
2018-12-20T01:11:09.347Z,6.89
2018-12-20T01:13:36.895Z,6.84
2018-12-20T01:16:04.658Z,6.91
2018-12-20T01:18:32.597Z,6.88
2018-12-20T01:21:00.350Z,6.93
2018-12-20T01:23:27.916Z,6.91
2018-12-20T01:25:55.659Z,6.90
2018-12-20T01:28:23.273Z,6.91
2018-12-20T01:30:51.050Z,6.91
2018-12-20T01:33:18.651Z,6.91
2018-12-20T01:35:46.188Z,6.88
2018-12-20T01:38:13.820Z,6.79
2018-12-20T01:40:41.557Z,6.80
2018-12-20T01:43:09.273Z,6.71
2018-12-20T01:45:37.002Z,6.68
2018-12-20T01:48:04.671Z,6.70
2018-12-20T01:50:32.272Z,6.69
2018-12-20T01:52:59.788Z,6.70
2018-12-20T01:55:27.322Z,6.62
2018-12-20T01:57:54.831Z,6.66
2018-12-20T02:00:22.417Z,6.65
2018-12-20T02:02:50.090Z,6.65
2018-12-20T02:05:17.765Z,6.68
2018-12-20T02:07:45.351Z,6.69
2018-12-20T02:10:12.974Z,6.65
2018-12-20T02:12:40.516Z,6.62
2018-12-20T02:15:08.331Z,6.65
2018-12-20T02:17:36.085Z,6.64
2018-12-20T02:20:04.810Z,6.63
2018-12-20T02:22:32.518Z,6.60
2018-12-20T02:25:00.111Z,6.61
2018-12-20T02:27:27.739Z,6.60
2018-12-20T02:29:55.381Z,6.63
2018-12-20T02:32:23.080Z,6.62
2018-12-20T02:34:50.696Z,6.66
2018-12-20T02:37:18.325Z,6.61
2018-12-20T02:39:46.009Z,6.62
2018-12-20T02:42:13.893Z,6.61
2018-12-20T02:44:41.669Z,6.56
2018-12-20T02:47:09.196Z,6.56
2018-12-20T02:49:36.765Z,6.53
2018-12-20T02:52:04.433Z,6.58
2018-12-20T02:54:32.191Z,6.60
2018-12-20T02:56:59.870Z,6.58
2018-12-20T02:59:27.394Z,6.56
2018-12-20T03:01:54.934Z,6.57
2018-12-20T03:04:22.543Z,6.64
2018-12-20T03:06:50.134Z,6.61
2018-12-20T03:09:17.711Z,6.55
2018-12-20T03:11:45.357Z,6.60
2018-12-20T03:14:13.080Z,6.64
2018-12-20T03:16:40.779Z,6.58
2018-12-20T03:19:08.348Z,6.59
2018-12-20T03:21:36.089Z,6.57
2018-12-20T03:24:03.879Z,6.61
2018-12-20T03:26:31.530Z,6.56
2018-12-20T03:28:59.044Z,6.59
2018-12-20T03:31:26.594Z,6.52
2018-12-20T03:33:54.107Z,6.57
2018-12-20T03:36:21.940Z,6.51
2018-12-20T03:38:49.853Z,6.53
2018-12-20T03:41:17.803Z,6.51
2018-12-20T03:43:45.496Z,6.55
2018-12-20T03:46:13.119Z,6.53
2018-12-20T03:48:40.677Z,6.52
2018-12-20T03:51:08.422Z,6.54
2018-12-20T03:53:36.063Z,6.56
2018-12-20T03:56:03.822Z,6.55
2018-12-20T03:58:31.550Z,6.57
2018-12-20T04:00:59.521Z,6.54
2018-12-20T04:03:27.472Z,6.55
2018-12-20T04:05:55.265Z,6.57
2018-12-20T04:08:23.076Z,6.55
2018-12-20T04:10:50.693Z,6.64
2018-12-20T04:13:18.287Z,6.65
2018-12-20T04:15:45.855Z,6.68
2018-12-20T04:18:13.442Z,6.66
2018-12-20T04:20:41.074Z,6.61
2018-12-20T04:23:08.776Z,6.62
2018-12-20T04:25:36.700Z,6.57
2018-12-20T04:28:04.345Z,6.62
2018-12-20T04:30:32.245Z,6.57
2018-12-20T04:33:00.028Z,6.57
2018-12-20T04:35:27.553Z,6.55
2018-12-20T04:37:55.087Z,6.60
2018-12-20T04:40:22.621Z,6.63
2018-12-20T04:42:50.367Z,6.61
2018-12-20T04:45:18.117Z,6.65
2018-12-20T04:47:45.834Z,6.64
2018-12-20T04:50:13.354Z,6.60
2018-12-20T04:52:41.032Z,6.64
2018-12-20T04:55:08.685Z,6.60
2018-12-20T04:57:36.619Z,6.59
2018-12-20T05:00:06.163Z,6.59
2018-12-20T05:02:33.707Z,6.60
2018-12-20T05:05:01.377Z,6.67
2018-12-20T05:07:29.017Z,6.58
2018-12-20T05:09:56.986Z,6.61
2018-12-20T05:12:24.621Z,6.58
2018-12-20T05:14:52.302Z,6.59
2018-12-20T05:17:19.916Z,6.54
2018-12-20T05:19:47.869Z,6.56
2018-12-20T05:22:15.567Z,6.52
2018-12-20T05:24:43.319Z,6.58
2018-12-20T05:27:11.161Z,6.56
2018-12-20T05:29:38.766Z,6.60
2018-12-20T05:32:06.523Z,6.59
2018-12-20T05:34:34.170Z,6.68
2018-12-20T05:37:01.919Z,6.68
2018-12-20T05:39:29.481Z,6.63
2018-12-20T05:41:57.215Z,6.63
2018-12-20T05:44:24.877Z,6.60
2018-12-20T05:46:52.432Z,6.56
2018-12-20T05:49:20.032Z,6.53
2018-12-20T05:51:47.644Z,6.56
2018-12-20T05:54:15.425Z,6.56
2018-12-20T05:56:43.116Z,6.54
2018-12-20T05:59:10.876Z,6.53
2018-12-20T06:01:38.870Z,6.50
2018-12-20T06:04:06.486Z,6.47
2018-12-20T06:06:34.040Z,6.47
2018-12-20T06:09:01.764Z,6.47
2018-12-20T06:11:29.515Z,6.49
2018-12-20T06:13:57.027Z,6.51
2018-12-20T06:16:24.582Z,6.53
2018-12-20T06:18:52.174Z,6.49
2018-12-20T06:21:19.806Z,6.48
2018-12-20T06:23:47.349Z,6.50
2018-12-20T06:26:14.858Z,6.52
2018-12-20T06:28:42.397Z,6.52
2018-12-20T06:31:09.928Z,6.60
2018-12-20T06:33:37.927Z,6.57
2018-12-20T06:36:05.440Z,6.53
2018-12-20T06:38:32.974Z,6.54
2018-12-20T06:41:00.507Z,6.49
2018-12-20T06:43:28.039Z,6.44
2018-12-20T06:45:55.547Z,6.45
2018-12-20T06:48:23.092Z,6.44
2018-12-20T06:50:50.716Z,6.37
2018-12-20T06:53:18.260Z,6.44
2018-12-20T06:55:45.772Z,6.35
2018-12-20T06:58:13.358Z,6.39
2018-12-20T07:00:40.895Z,6.44
2018-12-20T07:03:08.426Z,6.35
2018-12-20T07:05:35.949Z,6.34
2018-12-20T07:08:03.503Z,6.38
2018-12-20T07:10:31.151Z,6.35
2018-12-20T07:12:58.701Z,6.37
2018-12-20T07:15:26.232Z,6.36
2018-12-20T07:17:53.781Z,6.39
2018-12-20T07:20:21.295Z,6.39
2018-12-20T07:22:48.824Z,6.37
2018-12-20T07:25:16.468Z,6.39
2018-12-20T07:27:44.019Z,6.42
2018-12-20T07:30:12.228Z,6.46
2018-12-20T07:32:40.862Z,6.45
2018-12-20T07:35:10.239Z,6.45
2018-12-20T07:37:38.458Z,6.45
2018-12-20T07:40:09.615Z,6.46
2018-12-20T07:42:37.254Z,6.46
2018-12-20T07:45:06.911Z,6.35
2018-12-20T07:47:35.277Z,6.36
2018-12-20T07:50:03.594Z,6.35
2018-12-20T07:52:31.217Z,6.31
2018-12-20T07:54:58.932Z,6.28
2018-12-20T07:57:26.623Z,6.30
2018-12-20T07:59:54.129Z,6.33
2018-12-20T08:02:21.756Z,6.30
2018-12-20T08:04:49.296Z,6.26
2018-12-20T08:07:16.846Z,6.28
2018-12-20T08:09:44.644Z,6.22
2018-12-20T08:12:12.237Z,6.25
2018-12-20T08:14:39.782Z,6.25
2018-12-20T08:17:07.304Z,6.34
2018-12-20T08:19:36.434Z,6.36
2018-12-20T08:22:04.225Z,6.35
2018-12-20T08:24:31.789Z,6.27
2018-12-20T08:26:59.542Z,6.20
2018-12-20T08:29:28.440Z,6.23
2018-12-20T08:31:56.522Z,6.17
2018-12-20T08:34:24.322Z,6.20
2018-12-20T08:36:52.468Z,6.24
2018-12-20T08:39:20.057Z,6.20
2018-12-20T08:41:48.694Z,6.17
2018-12-20T08:44:16.280Z,6.15
2018-12-20T08:46:44.022Z,6.11
2018-12-20T08:49:11.570Z,6.10
2018-12-20T08:51:39.096Z,6.08
2018-12-20T08:54:06.696Z,6.03
2018-12-20T08:56:34.203Z,6.05
2018-12-20T08:59:01.906Z,6.02
2018-12-20T09:01:29.878Z,5.98
2018-12-20T09:03:59.572Z,6.00
2018-12-20T09:06:27.093Z,6.05
2018-12-20T09:08:54.808Z,5.98
2018-12-20T09:11:22.360Z,6.06
2018-12-20T09:13:49.896Z,6.18
2018-12-20T09:16:17.414Z,6.29
2018-12-20T09:18:45.075Z,6.12
2018-12-20T09:21:13.013Z,6.18
2018-12-20T09:23:40.592Z,6.10
2018-12-20T09:26:08.460Z,6.06
2018-12-20T09:28:36.012Z,6.12
2018-12-20T09:31:03.542Z,6.12
2018-12-20T09:33:31.093Z,5.96
2018-12-20T09:35:58.600Z,6.41
2018-12-20T09:38:26.975Z,6.19
2018-12-20T09:40:54.503Z,6.14
2018-12-20T09:43:22.043Z,6.24
2018-12-20T09:45:49.551Z,6.26
2018-12-20T09:48:17.105Z,6.27
2018-12-20T09:50:44.734Z,6.31
2018-12-20T09:53:12.349Z,6.36
2018-12-20T09:55:39.894Z,6.27
2018-12-20T09:58:07.396Z,6.26
2018-12-20T10:00:35.046Z,6.27
2018-12-20T10:03:02.561Z,6.33
2018-12-20T10:05:30.100Z,6.30
2018-12-20T10:07:57.601Z,6.29
2018-12-20T10:10:25.141Z,6.21
2018-12-20T10:12:52.648Z,6.25
2018-12-20T10:15:20.176Z,6.21
2018-12-20T10:17:47.681Z,6.36
2018-12-20T10:20:15.214Z,6.36
2018-12-20T10:22:43.396Z,6.34
2018-12-20T10:25:11.018Z,6.38
2018-12-20T10:27:38.967Z,6.37
2018-12-20T10:30:07.068Z,6.36
2018-12-20T10:32:34.577Z,6.48
2018-12-20T10:35:02.107Z,6.48
2018-12-20T10:37:30.053Z,6.34
2018-12-20T10:39:57.652Z,6.43
2018-12-20T10:42:25.155Z,6.40
2018-12-20T10:44:53.003Z,6.42
2018-12-20T10:47:28.845Z,6.52
2018-12-20T10:49:53.871Z,6.48
2018-12-20T10:52:21.384Z,6.51
2018-12-20T10:54:48.922Z,6.59
2018-12-20T10:57:16.412Z,6.62
2018-12-20T10:59:43.952Z,6.80
2018-12-20T11:02:17.076Z,6.76
2018-12-20T11:04:50.120Z,6.71
2018-12-20T11:07:23.340Z,6.63
2018-12-20T11:09:56.624Z,6.66
2018-12-20T11:12:25.944Z,6.70
2018-12-20T11:14:54.478Z,6.79
2018-12-20T11:17:21.994Z,6.77
2018-12-20T11:19:49.535Z,6.86
2018-12-20T11:22:17.035Z,6.78
2018-12-20T11:24:44.570Z,6.82
2018-12-20T11:27:12.546Z,6.92
2018-12-20T11:29:40.070Z,6.91
2018-12-20T11:32:07.585Z,6.84
2018-12-20T11:34:35.378Z,6.85
2018-12-20T11:37:03.621Z,6.95
2018-12-20T11:39:31.160Z,6.91
2018-12-20T11:41:58.663Z,6.90
2018-12-20T11:44:26.179Z,6.87
2018-12-20T11:46:53.731Z,6.86
2018-12-20T11:49:21.243Z,6.94
2018-12-20T11:51:49.702Z,6.89
2018-12-20T11:54:17.213Z,6.88
2018-12-20T11:56:44.755Z,6.95
2018-12-20T11:59:12.286Z,6.90
2018-12-20T12:01:39.821Z,6.93
2018-12-20T12:04:07.335Z,6.93
2018-12-20T12:06:34.865Z,6.91
2018-12-20T12:09:02.373Z,6.95
2018-12-20T12:11:29.904Z,6.95
2018-12-20T12:13:57.425Z,6.95
2018-12-20T12:16:24.960Z,6.99
2018-12-20T12:18:52.499Z,7.07
2018-12-20T12:21:20.120Z,7.06
2018-12-20T12:23:47.655Z,7.08
2018-12-20T12:26:15.284Z,7.10
2018-12-20T12:28:42.859Z,7.05
2018-12-20T12:31:11.939Z,7.06
2018-12-20T12:33:39.453Z,7.09
2018-12-20T12:36:06.993Z,7.18
2018-12-20T12:38:34.513Z,7.09
2018-12-20T12:41:02.057Z,7.01
2018-12-20T12:43:29.967Z,7.02
2018-12-20T12:45:57.519Z,7.00
2018-12-20T12:48:25.041Z,7.05
2018-12-20T12:50:53.205Z,7.05
2018-12-20T12:53:20.717Z,7.07
2018-12-20T12:55:48.366Z,7.12
2018-12-20T12:58:15.878Z,7.22
2018-12-20T13:00:43.485Z,7.07
2018-12-20T13:03:10.991Z,7.21
2018-12-20T13:05:38.674Z,7.14
2018-12-20T13:08:06.332Z,7.21
2018-12-20T13:10:33.878Z,7.32
2018-12-20T13:13:01.786Z,7.25
2018-12-20T13:15:29.338Z,7.17
2018-12-20T13:17:56.954Z,7.21
2018-12-20T13:20:24.477Z,7.20
2018-12-20T13:22:52.032Z,7.19
2018-12-20T13:25:19.532Z,7.23
2018-12-20T13:27:48.307Z,7.41
2018-12-20T13:30:16.139Z,7.50
2018-12-20T13:32:44.074Z,7.49
2018-12-20T13:35:13.044Z,7.56
2018-12-20T13:37:40.925Z,7.59
2018-12-20T13:40:08.786Z,7.66
2018-12-20T13:42:36.809Z,7.50
2018-12-20T13:45:06.592Z,7.46
2018-12-20T13:47:36.712Z,7.48
2018-12-20T13:50:05.836Z,7.42
2018-12-20T13:52:33.998Z,7.44
2018-12-20T13:55:01.970Z,7.38
2018-12-20T13:57:29.541Z,7.43
2018-12-20T13:59:57.233Z,7.47
2018-12-20T14:02:25.034Z,7.46
2018-12-20T14:04:52.688Z,7.62
2018-12-20T14:07:20.349Z,7.57
2018-12-20T14:09:48.019Z,7.58
2018-12-20T14:12:15.867Z,7.77
2018-12-20T14:14:44.113Z,7.69
2018-12-20T14:17:12.179Z,7.84
2018-12-20T14:19:39.854Z,7.83
2018-12-20T14:22:07.393Z,7.81
2018-12-20T14:24:34.920Z,7.83
2018-12-20T14:27:02.695Z,7.67
2018-12-20T14:29:31.048Z,7.63
2018-12-20T14:31:58.657Z,7.52
2018-12-20T14:34:26.284Z,7.63
2018-12-20T14:36:54.101Z,7.55
2018-12-20T14:39:21.824Z,7.54
2018-12-20T14:41:49.845Z,7.60
2018-12-20T14:44:21.351Z,7.57
2018-12-20T14:46:49.370Z,7.47
2018-12-20T14:49:17.114Z,7.49
2018-12-20T14:51:44.681Z,7.51
2018-12-20T14:54:12.216Z,7.47
2018-12-20T14:56:41.320Z,7.40
2018-12-20T14:59:08.859Z,7.35
2018-12-20T15:01:36.395Z,7.35
2018-12-20T15:04:04.891Z,7.36
2018-12-20T15:06:35.543Z,7.33
2018-12-20T15:09:05.919Z,7.37
2018-12-20T15:11:34.630Z,7.32
2018-12-20T15:14:03.062Z,7.32
2018-12-20T15:16:31.045Z,7.26
2018-12-20T15:18:59.556Z,7.27
2018-12-20T15:21:27.162Z,7.24
2018-12-20T15:23:57.440Z,7.23
2018-12-20T15:26:24.951Z,7.18
2018-12-20T15:28:52.494Z,7.17
2018-12-20T15:31:20.008Z,7.17
2018-12-20T15:33:47.559Z,7.16
2018-12-20T15:36:15.056Z,7.17
2018-12-20T15:38:42.620Z,7.15
2018-12-20T15:41:10.179Z,7.13
2018-12-20T15:43:37.769Z,7.12
2018-12-20T15:46:05.322Z,7.08
2018-12-20T15:48:32.910Z,7.07
2018-12-20T15:51:00.446Z,7.08
2018-12-20T15:53:27.984Z,7.04
2018-12-20T15:55:55.538Z,7.11
2018-12-20T15:58:23.090Z,7.07
2018-12-20T16:00:50.598Z,7.07
2018-12-20T16:03:18.167Z,7.11
2018-12-20T16:05:45.711Z,7.08
2018-12-20T16:08:13.319Z,7.07
2018-12-20T16:10:40.861Z,7.07
2018-12-20T16:13:08.515Z,7.03
2018-12-20T16:15:36.056Z,7.05
2018-12-20T16:18:03.701Z,7.06
2018-12-20T16:20:31.220Z,7.07
2018-12-20T16:22:58.782Z,7.06
2018-12-20T16:25:26.350Z,7.05
2018-12-20T16:27:53.925Z,7.07
2018-12-20T16:30:21.453Z,7.05
2018-12-20T16:32:49.002Z,7.05
2018-12-20T16:35:16.517Z,7.06
2018-12-20T16:37:44.051Z,7.07
2018-12-20T16:40:11.613Z,7.10
2018-12-20T16:42:39.201Z,7.09
2018-12-20T16:45:06.829Z,7.11
2018-12-20T16:47:34.391Z,7.10
2018-12-20T16:50:01.916Z,7.12
2018-12-20T16:52:29.484Z,7.10
2018-12-20T16:54:57.003Z,7.13
2018-12-20T16:57:24.540Z,7.12
2018-12-20T16:59:52.095Z,7.09
2018-12-20T17:02:19.641Z,7.11
2018-12-20T17:04:47.354Z,7.15
2018-12-20T17:07:14.892Z,7.18
2018-12-20T17:09:42.470Z,7.16
2018-12-20T17:12:09.977Z,7.08
2018-12-20T17:14:37.553Z,7.13
2018-12-20T17:17:05.100Z,7.11
2018-12-20T17:19:32.701Z,7.09
2018-12-20T17:22:00.675Z,7.09
2018-12-20T17:24:28.261Z,7.15
2018-12-20T17:26:55.882Z,7.15
2018-12-20T17:29:23.526Z,7.14
2018-12-20T17:31:51.466Z,7.13
2018-12-20T17:34:19.023Z,7.11
2018-12-20T17:36:46.753Z,7.10
2018-12-20T17:39:14.339Z,7.06
2018-12-20T17:41:41.864Z,7.05
2018-12-20T17:44:09.404Z,7.06
2018-12-20T17:46:36.924Z,7.07
2018-12-20T17:49:04.461Z,7.06
2018-12-20T17:51:33.086Z,7.07
2018-12-20T17:54:00.614Z,7.06
2018-12-20T17:56:28.128Z,7.03
2018-12-20T17:58:55.665Z,7.01
2018-12-20T18:01:24.316Z,7.06
2018-12-20T18:03:52.019Z,7.06
2018-12-20T18:06:19.535Z,7.04
2018-12-20T18:08:47.076Z,7.03
2018-12-20T18:11:15.093Z,7.06
2018-12-20T18:13:44.073Z,7.05
2018-12-20T18:16:12.106Z,7.05
2018-12-20T18:18:39.844Z,6.98
2018-12-20T18:21:07.392Z,6.96
2018-12-20T18:23:36.104Z,6.97
2018-12-20T18:26:03.752Z,6.94
2018-12-20T18:28:31.868Z,6.92
2018-12-20T18:30:59.876Z,7.00
2018-12-20T18:33:27.438Z,7.00
2018-12-20T18:35:55.858Z,7.03
2018-12-20T18:38:23.859Z,7.05
2018-12-20T18:40:54.470Z,7.08
2018-12-20T18:43:22.682Z,7.05
2018-12-20T18:45:50.847Z,7.10
2018-12-20T18:48:18.553Z,7.07
2018-12-20T18:50:47.057Z,7.10
2018-12-20T18:53:14.637Z,7.06
2018-12-20T18:55:42.389Z,7.08
2018-12-20T18:58:09.931Z,7.05
2018-12-20T19:00:37.479Z,7.05
2018-12-20T19:03:05.100Z,7.04
2018-12-20T19:05:32.661Z,7.02
2018-12-20T19:08:00.208Z,7.08
2018-12-20T19:10:27.779Z,7.10
2018-12-20T19:12:55.335Z,7.05
2018-12-20T19:15:23.151Z,7.00
2018-12-20T19:17:50.677Z,7.08
2018-12-20T19:20:18.306Z,7.03
2018-12-20T19:22:45.930Z,7.08
2018-12-20T19:25:13.482Z,7.09
2018-12-20T19:27:41.608Z,7.08
2018-12-20T19:32:31.328Z,7.11
2018-12-20T19:35:00.059Z,7.06
2018-12-20T19:37:32.491Z,7.07
2018-12-20T19:40:03.355Z,7.07
2018-12-20T19:42:32.102Z,7.00
2018-12-20T19:44:59.843Z,6.91
2018-12-20T19:47:27.606Z,6.91
2018-12-20T19:49:55.389Z,6.89
2018-12-20T19:52:23.125Z,6.89
2018-12-20T19:54:50.811Z,6.89
2018-12-20T19:57:18.851Z,6.87
2018-12-20T19:59:52.644Z,6.89
2018-12-20T20:05:01.046Z,6.89
2018-12-20T20:07:41.807Z,6.90
2018-12-20T20:10:09.871Z,6.92
2018-12-20T20:12:37.394Z,6.92
2018-12-20T20:15:16.060Z,6.94
2018-12-20T20:17:36.887Z,6.89
2018-12-20T20:20:13.514Z,6.97
2018-12-20T20:22:35.026Z,6.92
2018-12-20T20:25:02.616Z,6.91
2018-12-20T20:27:30.313Z,6.92
2018-12-20T20:29:57.848Z,6.93
2018-12-20T20:32:25.529Z,6.89
2018-12-20T20:34:53.068Z,6.91
2018-12-20T20:37:20.738Z,6.89
2018-12-20T20:39:48.278Z,6.90
2018-12-20T20:42:15.807Z,6.95
2018-12-20T20:44:43.318Z,6.91
2018-12-20T20:47:10.864Z,6.88
2018-12-20T20:49:38.374Z,6.85
2018-12-20T20:52:05.947Z,6.90
2018-12-20T20:54:33.605Z,6.90
2018-12-20T20:57:02.242Z,6.91
2018-12-20T20:59:30.057Z,6.93
2018-12-20T21:01:57.604Z,6.87
2018-12-20T21:04:25.264Z,6.87
2018-12-20T21:06:52.878Z,6.88
2018-12-20T21:09:20.554Z,6.88
2018-12-20T21:11:48.106Z,6.88
2018-12-20T21:14:15.625Z,6.83
2018-12-20T21:16:43.215Z,6.57
2018-12-20T21:19:10.720Z,6.86
2018-12-20T21:21:38.324Z,6.85
2018-12-20T21:24:05.835Z,6.84
2018-12-20T21:26:33.403Z,6.91
2018-12-20T21:29:00.917Z,6.87
2018-12-20T21:31:28.468Z,6.85
2018-12-20T21:33:55.976Z,6.88
2018-12-20T21:36:23.565Z,6.87
2018-12-20T21:38:51.081Z,6.86
2018-12-20T21:41:18.601Z,6.84
2018-12-20T21:43:46.150Z,6.85
2018-12-20T21:46:19.057Z,6.81
2018-12-20T21:48:47.031Z,6.91
2018-12-20T21:51:14.798Z,6.89
2018-12-20T21:53:42.452Z,6.91
2018-12-20T21:56:10.892Z,6.90
2018-12-20T21:58:38.439Z,6.88
2018-12-20T22:01:06.166Z,6.93
2018-12-20T22:03:34.220Z,6.93
2018-12-20T22:06:02.651Z,6.94
2018-12-20T22:08:30.781Z,6.97
2018-12-20T22:10:58.850Z,6.93
2018-12-20T22:13:27.987Z,6.94
2018-12-20T22:15:55.651Z,6.99
2018-12-20T22:18:25.570Z,6.92
2018-12-20T22:20:57.467Z,6.92
2018-12-20T22:23:27.609Z,6.93
2018-12-20T22:25:56.012Z,6.91
2018-12-20T22:28:24.196Z,6.90
2018-12-20T22:30:53.254Z,6.88
2018-12-20T22:33:21.632Z,6.91
2018-12-20T22:35:52.577Z,6.88
2018-12-20T22:38:24.523Z,6.94
2018-12-20T22:40:52.877Z,6.91
2018-12-20T22:43:22.170Z,6.89
2018-12-20T22:45:53.159Z,6.91
2018-12-20T22:48:20.935Z,6.89
2018-12-20T22:50:55.843Z,6.91
2018-12-20T22:53:20.449Z,6.88
2018-12-20T22:55:48.603Z,6.86
2018-12-20T22:58:16.823Z,6.86
2018-12-20T23:00:46.936Z,6.85
2018-12-20T23:03:15.203Z,7.20
2018-12-20T23:05:46.386Z,6.91
2018-12-20T23:08:16.269Z,6.81
2018-12-20T23:10:44.170Z,6.81
2018-12-20T23:13:12.291Z,6.83
2018-12-20T23:15:41.621Z,6.84
2018-12-20T23:18:10.348Z,6.78
2018-12-20T23:20:38.360Z,6.83
2018-12-20T23:23:07.160Z,6.83
2018-12-20T23:25:36.865Z,6.82
2018-12-20T23:28:05.233Z,6.85
2018-12-20T23:30:33.972Z,6.85
2018-12-20T23:33:01.659Z,6.83
2018-12-20T23:35:29.184Z,6.88
2018-12-20T23:37:56.876Z,6.90
2018-12-20T23:40:24.556Z,6.90
2018-12-20T23:42:52.362Z,6.89
2018-12-20T23:45:20.723Z,6.88
2018-12-20T23:47:48.455Z,6.89
2018-12-20T23:50:16.412Z,6.89
2018-12-20T23:52:43.993Z,6.92
2018-12-20T23:55:11.994Z,6.90
2018-12-20T23:57:39.494Z,6.98
